Time;durP1;ratioP1;P1;durP2;ratioP2;P2;SDS_P1;SDS_P2;PMS_P1;PMS_P2;Temp;Humidity;BMP_temperature;BMP_pressure;BME280_temperature;BME280_humidity;BME280_pressure;Samples;Min_cycle;Max_cycle;Signal;HPM_P1;HPM_P2
2020/12/18 00:02:22;;;;;;;20.17;13.52;;;;;;;;;;5036675;28;20040;-58
2020/12/18 00:04:48;;;;;;;21.42;12.18;;;;;;;;;;5054676;28;20414;-58
2020/12/18 00:07:14;;;;;;;18.80;12.07;;;;;;;;;;5054788;28;20108;-58
2020/12/18 00:09:41;;;;;;;17.98;11.98;;;;;;;;;;5054659;28;20056;-58
2020/12/18 00:12:07;;;;;;;17.48;12.32;;;;;;;;;;5054417;28;20075;-58
2020/12/18 00:14:33;;;;;;;21.60;11.52;;;;;;;;;;5054114;28;20039;-58
2020/12/18 00:16:59;;;;;;;19.23;11.93;;;;;;;;;;5054272;28;20067;-58
2020/12/18 00:19:25;;;;;;;22.05;12.02;;;;;;;;;;5054157;28;20079;-58
2020/12/18 00:21:55;;;;;;;18.30;11.80;;;;;;;;;;5054212;28;20029;-58
2020/12/18 00:24:21;;;;;;;17.02;11.73;;;;;;;;;;5054101;28;20033;-58
2020/12/18 00:26:48;;;;;;;23.70;13.10;;;;;;;;;;5054062;28;20028;-58
2020/12/18 00:29:14;;;;;;;19.92;13.68;;;;;;;;;;5054328;28;20381;-58
2020/12/18 00:31:40;;;;;;;21.75;14.02;;;;;;;;;;5053932;28;20167;-58
2020/12/18 00:34:06;;;;;;;19.58;12.27;;;;;;;;;;5053905;28;20028;-58
2020/12/18 00:36:32;;;;;;;18.35;12.30;;;;;;;;;;5053944;28;20025;-58
2020/12/18 00:38:58;;;;;;;19.65;12.52;;;;;;;;;;5053718;28;20025;-58
2020/12/18 00:41:25;;;;;;;19.17;11.30;;;;;;;;;;5054155;28;20410;-58
2020/12/18 00:43:51;;;;;;;14.38;9.27;;;;;;;;;;5054029;28;20039;-59
2020/12/18 00:46:17;;;;;;;15.05;8.55;;;;;;;;;;5053852;28;20021;-58
2020/12/18 00:48:43;;;;;;;16.48;8.70;;;;;;;;;;5053959;28;20174;-58
2020/12/18 00:51:09;;;;;;;12.30;8.60;;;;;;;;;;5053354;28;20513;-58
2020/12/18 00:53:35;;;;;;;14.25;8.60;;;;;;;;;;5053872;28;20056;-58
2020/12/18 00:56:06;;;;;;;14.32;8.48;;;;;;;;;;5053627;28;20033;-58
2020/12/18 00:58:32;;;;;;;8.77;6.15;;;;;;;;;;5053358;28;20060;-58
2020/12/18 01:00:58;;;;;;;13.88;9.27;;;;;;;;;;5053557;28;20036;-58
2020/12/18 01:03:25;;;;;;;14.48;8.23;;;;;;;;;;5053597;28;20041;-58
2020/12/18 01:05:51;;;;;;;12.15;7.93;;;;;;;;;;5053547;28;20017;-59
2020/12/18 01:08:17;;;;;;;10.75;8.10;;;;;;;;;;5052739;28;20474;-58
2020/12/18 01:10:43;;;;;;;12.98;9.07;;;;;;;;;;5053224;28;20560;-58
2020/12/18 01:13:09;;;;;;;16.48;9.32;;;;;;;;;;5053282;28;20040;-59
2020/12/18 01:15:35;;;;;;;12.20;9.27;;;;;;;;;;5053113;28;20028;-59
2020/12/18 01:18:01;;;;;;;16.88;9.48;;;;;;;;;;5053470;28;20033;-58
2020/12/18 01:20:27;;;;;;;13.52;8.30;;;;;;;;;;5053041;28;20021;-59
2020/12/18 01:22:54;;;;;;;12.73;8.25;;;;;;;;;;5053296;28;20041;-59
2020/12/18 01:25:20;;;;;;;11.93;7.78;;;;;;;;;;5053139;28;20513;-58
2020/12/18 01:27:46;;;;;;;11.77;7.47;;;;;;;;;;5052979;28;20433;-58
2020/12/18 01:30:12;;;;;;;13.07;8.35;;;;;;;;;;5053019;28;20021;-58
2020/12/18 01:32:38;;;;;;;13.55;9.32;;;;;;;;;;5053026;28;20075;-58
2020/12/18 01:35:05;;;;;;;14.05;8.77;;;;;;;;;;5053240;28;20024;-58
2020/12/18 01:37:31;;;;;;;12.27;8.48;;;;;;;;;;5052965;28;20035;-59
2020/12/18 01:39:57;;;;;;;14.35;9.10;;;;;;;;;;5052917;28;20436;-58
2020/12/18 01:42:24;;;;;;;13.55;8.65;;;;;;;;;;5052893;28;20465;-57
2020/12/18 01:44:50;;;;;;;12.32;7.88;;;;;;;;;;5053233;28;20021;-58
2020/12/18 01:47:30;;;;;;;12.50;8.43;;;;;;;;;;5052861;28;20040;-59
2020/12/18 01:49:56;;;;;;;13.02;7.78;;;;;;;;;;5053122;28;20412;-58
2020/12/18 01:52:26;;;;;;;12.52;9.32;;;;;;;;;;5052817;28;20033;-58
2020/12/18 01:54:53;;;;;;;14.25;9.77;;;;;;;;;;5053175;28;20381;-59
2020/12/18 01:57:19;;;;;;;14.85;9.10;;;;;;;;;;5052491;28;20370;-59
2020/12/18 01:59:45;;;;;;;14.55;9.32;;;;;;;;;;5052764;28;20029;-59
2020/12/18 02:02:11;;;;;;;14.50;9.38;;;;;;;;;;5052928;28;20033;-58
2020/12/18 02:04:42;;;;;;;14.20;9.23;;;;;;;;;;5052763;28;20029;-58
2020/12/18 02:07:10;;;;;;;15.82;8.95;;;;;;;;;;5053019;28;20032;-58
2020/12/18 02:09:36;;;;;;;15.77;9.02;;;;;;;;;;5053151;28;20025;-59
2020/12/18 02:12:03;;;;;;;13.15;9.15;;;;;;;;;;5053048;28;20033;-59
2020/12/18 02:14:29;;;;;;;16.17;9.15;;;;;;;;;;5052566;28;20017;-59
2020/12/18 02:16:56;;;;;;;14.32;8.30;;;;;;;;;;5052608;28;20041;-59
2020/12/18 02:19:24;;;;;;;13.52;8.15;;;;;;;;;;5052848;28;20087;-58
2020/12/18 02:21:50;;;;;;;15.85;8.40;;;;;;;;;;5055818;28;20094;-58
2020/12/18 02:24:26;;;;;;;14.40;9.35;;;;;;;;;;5056356;28;20397;-58
2020/12/18 02:26:53;;;;;;;16.10;9.77;;;;;;;;;;5056272;28;20029;-58
2020/12/18 02:29:19;;;;;;;14.82;9.15;;;;;;;;;;5056593;28;20057;-58
2020/12/18 02:31:48;;;;;;;15.93;9.60;;;;;;;;;;5056272;28;20037;-58
2020/12/18 02:34:14;;;;;;;25.20;12.65;;;;;;;;;;5056179;28;20028;-58
2020/12/18 02:36:40;;;;;;;25.63;15.50;;;;;;;;;;5056434;28;20029;-59
2020/12/18 02:39:06;;;;;;;27.33;17.92;;;;;;;;;;5056377;28;20153;-58
2020/12/18 02:41:32;;;;;;;30.90;19.20;;;;;;;;;;5055986;28;20482;-59
2020/12/18 02:43:58;;;;;;;27.45;18.02;;;;;;;;;;5056134;28;20116;-58
2020/12/18 02:46:24;;;;;;;29.38;19.92;;;;;;;;;;5055916;28;20061;-58
2020/12/18 02:48:50;;;;;;;29.98;19.77;;;;;;;;;;5056167;28;20052;-58
2020/12/18 02:51:16;;;;;;;33.53;20.70;;;;;;;;;;5055720;28;20470;-58
2020/12/18 02:53:42;;;;;;;30.17;19.83;;;;;;;;;;5055845;28;20053;-59
2020/12/18 02:56:09;;;;;;;30.20;21.02;;;;;;;;;;5055843;28;20044;-59
2020/12/18 02:58:35;;;;;;;31.20;20.83;;;;;;;;;;5055628;28;20051;-59
2020/12/18 03:01:01;;;;;;;29.90;20.90;;;;;;;;;;5055722;28;20052;-58
2020/12/18 03:03:27;;;;;;;29.58;19.85;;;;;;;;;;5055472;28;20052;-58
2020/12/18 03:05:53;;;;;;;31.30;20.95;;;;;;;;;;5055590;28;20025;-58
2020/12/18 03:08:19;;;;;;;31.27;19.05;;;;;;;;;;5055640;28;20052;-58
2020/12/18 03:10:45;;;;;;;31.05;20.55;;;;;;;;;;5055674;28;20470;-58
2020/12/18 03:13:11;;;;;;;30.02;20.38;;;;;;;;;;5055489;28;20033;-58
2020/12/18 03:15:37;;;;;;;28.02;20.05;;;;;;;;;;5055375;28;20028;-59
2020/12/18 03:18:04;;;;;;;29.83;19.33;;;;;;;;;;5055572;28;20033;-58
2020/12/18 03:20:30;;;;;;;27.98;18.70;;;;;;;;;;5055573;28;20021;-59
2020/12/18 03:22:56;;;;;;;26.25;17.70;;;;;;;;;;5055508;28;20044;-59
2020/12/18 03:25:22;;;;;;;29.08;15.73;;;;;;;;;;5037428;28;20092;-59
2020/12/18 03:27:48;;;;;;;27.55;15.15;;;;;;;;;;5055183;28;20488;-59
2020/12/18 03:30:14;;;;;;;23.30;14.32;;;;;;;;;;5055112;28;20112;-58
2020/12/18 03:32:40;;;;;;;23.75;14.07;;;;;;;;;;5054505;28;20124;-59
2020/12/18 03:35:06;;;;;;;20.33;12.57;;;;;;;;;;5055371;28;20052;-58
2020/12/18 03:37:33;;;;;;;18.40;12.55;;;;;;;;;;5055275;28;20074;-59
2020/12/18 03:39:59;;;;;;;19.85;12.35;;;;;;;;;;5055055;28;20025;-58
2020/12/18 03:42:26;;;;;;;23.17;12.32;;;;;;;;;;5054791;28;20434;-59
2020/12/18 03:44:52;;;;;;;20.08;12.40;;;;;;;;;;5054918;28;20016;-59
2020/12/18 03:47:18;;;;;;;21.67;12.45;;;;;;;;;;5054739;28;20029;-59
2020/12/18 03:49:44;;;;;;;20.23;13.88;;;;;;;;;;5054784;28;20029;-59
2020/12/18 03:52:10;;;;;;;21.35;13.63;;;;;;;;;;5054705;28;20025;-59
2020/12/18 03:54:36;;;;;;;15.75;11.10;;;;;;;;;;5054751;28;20020;-59
2020/12/18 03:57:02;;;;;;;19.17;12.10;;;;;;;;;;5054476;28;20049;-59
2020/12/18 03:59:28;;;;;;;20.83;11.77;;;;;;;;;;5054589;28;20116;-59
2020/12/18 04:01:54;;;;;;;19.02;12.07;;;;;;;;;;5054688;28;20061;-58
2020/12/18 04:04:22;;;;;;;22.27;11.15;;;;;;;;;;5054450;28;20033;-58
2020/12/18 04:06:49;;;;;;;16.77;11.85;;;;;;;;;;5054590;28;20031;-58
2020/12/18 04:09:15;;;;;;;18.80;10.02;;;;;;;;;;5054712;28;20386;-58
2020/12/18 04:11:41;;;;;;;14.13;9.00;;;;;;;;;;5054449;28;20466;-58
2020/12/18 04:14:08;;;;;;;16.58;8.55;;;;;;;;;;5054527;28;20048;-59
2020/12/18 04:16:35;;;;;;;16.38;7.85;;;;;;;;;;5054193;28;20071;-58
2020/12/18 04:19:01;;;;;;;9.98;6.45;;;;;;;;;;5054208;28;20021;-58
2020/12/18 04:21:27;;;;;;;12.90;6.90;;;;;;;;;;5054154;28;20036;-58
2020/12/18 04:23:53;;;;;;;10.13;6.68;;;;;;;;;;5054157;28;20040;-62
2020/12/18 04:26:19;;;;;;;9.00;5.45;;;;;;;;;;5054172;28;20466;-66
2020/12/18 04:28:45;;;;;;;11.90;5.53;;;;;;;;;;5053884;28;20569;-61
2020/12/18 04:31:12;;;;;;;9.60;5.30;;;;;;;;;;5053955;28;20048;-70
2020/12/18 04:33:38;;;;;;;7.28;4.93;;;;;;;;;;5054014;28;20466;-59
2020/12/18 04:36:04;;;;;;;7.05;4.88;;;;;;;;;;5053948;28;20533;-52
2020/12/18 04:38:30;;;;;;;8.25;5.13;;;;;;;;;;5053881;28;20087;-59
2020/12/18 04:40:56;;;;;;;10.32;4.95;;;;;;;;;;5053750;28;20473;-59
2020/12/18 04:43:23;;;;;;;8.55;5.05;;;;;;;;;;5052793;28;20033;-59
2020/12/18 04:45:51;;;;;;;8.55;4.90;;;;;;;;;;5053985;28;20040;-59
2020/12/18 04:48:17;;;;;;;6.10;4.43;;;;;;;;;;5053812;28;20025;-58
2020/12/18 04:50:45;;;;;;;6.40;4.45;;;;;;;;;;5053982;28;20029;-59
2020/12/18 04:53:12;;;;;;;9.73;4.80;;;;;;;;;;5053460;28;20027;-59
2020/12/18 04:55:44;;;;;;;6.68;4.72;;;;;;;;;;5053935;28;20021;-59
2020/12/18 04:58:10;;;;;;;9.95;4.57;;;;;;;;;;5053418;28;20395;-58
2020/12/18 05:00:37;;;;;;;9.48;4.47;;;;;;;;;;5053522;28;20480;-59
2020/12/18 05:03:04;;;;;;;16.50;4.75;;;;;;;;;;5053642;28;20404;-59
2020/12/18 05:05:30;;;;;;;8.50;4.63;;;;;;;;;;5053361;28;20036;-58
2020/12/18 05:07:56;;;;;;;9.02;4.35;;;;;;;;;;5053361;28;20037;-58
2020/12/18 05:10:22;;;;;;;9.55;4.57;;;;;;;;;;5053578;28;20029;-58
2020/12/18 05:12:48;;;;;;;12.63;4.68;;;;;;;;;;5053603;28;20032;-58
2020/12/18 05:15:15;;;;;;;11.68;4.40;;;;;;;;;;5053156;28;20082;-59
2020/12/18 05:17:41;;;;;;;11.63;4.78;;;;;;;;;;5053220;28;20078;-58
2020/12/18 05:20:07;;;;;;;9.63;4.40;;;;;;;;;;5053383;28;20021;-59
2020/12/18 05:22:33;;;;;;;11.70;4.68;;;;;;;;;;5053033;28;20493;-58
2020/12/18 05:24:59;;;;;;;22.55;6.10;;;;;;;;;;5052979;28;20029;-58
2020/12/18 05:27:27;;;;;;;10.98;5.03;;;;;;;;;;5053117;28;20028;-58
2020/12/18 05:29:54;;;;;;;13.25;5.35;;;;;;;;;;5052967;28;20118;-59
2020/12/18 05:32:20;;;;;;;11.02;4.50;;;;;;;;;;5053058;28;20503;-58
2020/12/18 05:34:46;;;;;;;15.77;6.63;;;;;;;;;;5052940;28;20053;-58
2020/12/18 05:37:13;;;;;;;15.68;6.60;;;;;;;;;;5053358;28;20021;-58
2020/12/18 05:39:40;;;;;;;9.45;6.47;;;;;;;;;;5052929;28;20052;-58
2020/12/18 05:42:06;;;;;;;16.13;5.68;;;;;;;;;;5053150;28;20469;-58
2020/12/18 05:44:33;;;;;;;10.43;5.47;;;;;;;;;;5053043;28;20033;-58
2020/12/18 05:47:17;;;;;;;7.90;4.80;;;;;;;;;;5053006;28;20017;-58
2020/12/18 05:49:43;;;;;;;16.02;5.68;;;;;;;;;;5052887;28;20036;-58
2020/12/18 05:52:18;;;;;;;14.40;4.75;;;;;;;;;;5053139;28;20029;-58
2020/12/18 05:54:44;;;;;;;12.98;5.45;;;;;;;;;;5054598;28;20028;-58
2020/12/18 05:57:11;;;;;;;14.68;5.07;;;;;;;;;;5056813;28;20053;-58
2020/12/18 05:59:41;;;;;;;11.70;4.45;;;;;;;;;;5056839;28;20021;-58
2020/12/18 06:02:11;;;;;;;19.42;5.30;;;;;;;;;;5057236;28;20038;-58
2020/12/18 06:04:38;;;;;;;11.05;4.60;;;;;;;;;;5056637;28;20033;-58
2020/12/18 06:07:05;;;;;;;11.75;5.40;;;;;;;;;;5056833;28;20021;-59
2020/12/18 06:09:31;;;;;;;11.65;5.55;;;;;;;;;;5056710;28;20032;-58
2020/12/18 06:11:58;;;;;;;17.90;5.20;;;;;;;;;;5056715;28;20029;-59
2020/12/18 06:14:24;;;;;;;47.17;8.18;;;;;;;;;;5056452;28;20029;-59
2020/12/18 06:16:51;;;;;;;13.10;5.30;;;;;;;;;;5056691;28;20474;-58
2020/12/18 06:19:21;;;;;;;18.50;5.45;;;;;;;;;;5056722;28;20029;-59
2020/12/18 06:21:58;;;;;;;17.83;6.45;;;;;;;;;;5056151;28;20029;-59
2020/12/18 06:24:24;;;;;;;10.65;5.78;;;;;;;;;;5056538;28;20033;-59
2020/12/18 06:26:54;;;;;;;14.23;6.00;;;;;;;;;;5056348;28;20096;-59
2020/12/18 06:29:22;;;;;;;12.25;6.07;;;;;;;;;;5056589;28;20059;-59
2020/12/18 06:31:48;;;;;;;11.15;5.78;;;;;;;;;;5056239;28;20032;-59
2020/12/18 06:34:24;;;;;;;13.80;6.35;;;;;;;;;;5056241;28;20116;-59
2020/12/18 06:36:51;;;;;;;13.73;6.25;;;;;;;;;;5056168;28;20100;-59
2020/12/18 06:39:37;;;;;;;10.30;5.90;;;;;;;;;;5056231;28;20025;-58
2020/12/18 06:42:09;;;;;;;15.90;7.88;;;;;;;;;;5056356;28;20029;-58
2020/12/18 06:44:35;;;;;;;25.15;8.98;;;;;;;;;;5056003;28;20021;-58
2020/12/18 06:47:11;;;;;;;20.50;7.65;;;;;;;;;;5056212;28;20025;-58
2020/12/18 06:49:58;;;;;;;15.80;8.20;;;;;;;;;;5055915;28;20021;-58
2020/12/18 06:52:42;;;;;;;14.65;7.97;;;;;;;;;;5055986;28;20354;-59
2020/12/18 06:55:10;;;;;;;24.60;7.90;;;;;;;;;;5055752;28;20033;-59
2020/12/18 06:57:36;;;;;;;14.65;6.75;;;;;;;;;;5055748;28;20133;-59
2020/12/18 07:00:20;;;;;;;16.48;9.20;;;;;;;;;;5055031;28;20052;-59
2020/12/18 07:02:46;;;;;;;15.45;7.10;;;;;;;;;;5054209;28;20041;-58
2020/12/18 07:05:31;;;;;;;18.88;8.35;;;;;;;;;;5054797;28;20024;-59
2020/12/18 07:07:58;;;;;;;25.33;8.40;;;;;;;;;;5054851;28;20052;-59
2020/12/18 07:10:28;;;;;;;13.68;10.07;;;;;;;;;;5055346;28;20028;-59
2020/12/18 07:12:58;;;;;;;18.67;11.13;;;;;;;;;;5055316;28;20032;-59
2020/12/18 07:15:28;;;;;;;24.60;16.13;;;;;;;;;;5055359;28;20074;-59
2020/12/18 07:17:55;;;;;;;29.63;17.48;;;;;;;;;;5055187;28;20112;-59
2020/12/18 07:20:26;;;;;;;51.05;26.33;;;;;;;;;;5055254;28;20021;-59
2020/12/18 07:22:52;;;;;;;28.65;14.57;;;;;;;;;;5055616;28;20045;-59
2020/12/18 07:25:18;;;;;;;19.45;7.60;;;;;;;;;;5055102;28;20025;-59
2020/12/18 07:27:46;;;;;;;15.57;5.35;;;;;;;;;;5037327;28;20495;-60
2020/12/18 07:30:12;;;;;;;10.25;6.60;;;;;;;;;;5055425;28;20054;-59
2020/12/18 07:32:38;;;;;;;11.15;5.78;;;;;;;;;;5055027;28;20032;-59
2020/12/18 07:35:06;;;;;;;13.57;5.90;;;;;;;;;;5055336;28;20033;-59
2020/12/18 07:37:36;;;;;;;20.27;6.25;;;;;;;;;;5037296;28;20021;-60
2020/12/18 07:40:04;;;;;;;17.13;6.63;;;;;;;;;;5054917;28;20032;-59
2020/12/18 07:42:30;;;;;;;16.85;6.55;;;;;;;;;;5054729;28;20041;-60
2020/12/18 07:45:06;;;;;;;18.23;7.30;;;;;;;;;;5055128;28;20024;-59
2020/12/18 07:47:39;;;;;;;14.50;6.18;;;;;;;;;;5054708;28;20449;-59
2020/12/18 07:50:06;;;;;;;10.90;6.00;;;;;;;;;;5055036;28;20056;-59
2020/12/18 07:52:34;;;;;;;14.35;6.15;;;;;;;;;;5054520;28;20029;-59
2020/12/18 07:55:00;;;;;;;19.08;7.07;;;;;;;;;;5054993;28;20351;-59
2020/12/18 07:57:26;;;;;;;14.27;6.50;;;;;;;;;;5054418;28;20057;-59
2020/12/18 08:00:05;;;;;;;20.50;7.03;;;;;;;;;;5054554;28;20071;-59
2020/12/18 08:02:31;;;;;;;18.02;7.30;;;;;;;;;;5053435;28;20047;-59
2020/12/18 08:04:58;;;;;;;23.33;10.30;;;;;;;;;;5054363;28;20018;-60
2020/12/18 08:07:24;;;;;;;14.68;6.55;;;;;;;;;;5053811;28;20103;-59
2020/12/18 08:09:58;;;;;;;22.58;7.15;;;;;;;;;;5054744;28;20043;-59
2020/12/18 08:12:25;;;;;;;23.60;7.47;;;;;;;;;;5054534;28;20033;-59
2020/12/18 08:14:51;;;;;;;17.33;6.75;;;;;;;;;;5054329;28;20083;-57
2020/12/18 08:17:23;;;;;;;14.18;6.57;;;;;;;;;;5054347;28;20029;-59
2020/12/18 08:19:53;;;;;;;20.73;6.72;;;;;;;;;;5054474;28;20481;-59
2020/12/18 08:22:23;;;;;;;23.55;6.10;;;;;;;;;;5054266;28;20499;-59
2020/12/18 08:24:50;;;;;;;14.25;5.82;;;;;;;;;;5054330;28;20052;-59
2020/12/18 08:27:21;;;;;;;18.67;6.22;;;;;;;;;;5054118;28;20029;-59
2020/12/18 08:29:48;;;;;;;15.55;5.57;;;;;;;;;;5054070;28;20470;-59
2020/12/18 08:32:18;;;;;;;19.58;7.55;;;;;;;;;;5053943;28;20036;-59
2020/12/18 08:34:46;;;;;;;19.67;6.30;;;;;;;;;;5054129;28;20029;-60
2020/12/18 08:37:12;;;;;;;19.35;6.70;;;;;;;;;;5053721;28;20036;-59
2020/12/18 08:39:38;;;;;;;21.13;7.75;;;;;;;;;;5053800;28;20410;-59
2020/12/18 08:42:05;;;;;;;24.58;11.07;;;;;;;;;;5053581;28;20029;-59
2020/12/18 08:44:41;;;;;;;55.22;23.35;;;;;;;;;;5053947;28;20033;-60
2020/12/18 08:47:20;;;;;;;52.85;24.52;;;;;;;;;;5053550;28;20124;-59
2020/12/18 08:49:47;;;;;;;51.80;28.15;;;;;;;;;;5053992;28;20381;-60
2020/12/18 08:52:13;;;;;;;33.08;9.63;;;;;;;;;;5053833;28;20035;-60
2020/12/18 08:54:40;;;;;;;21.20;10.88;;;;;;;;;;5053898;28;20405;-59
2020/12/18 08:57:14;;;;;;;48.80;28.88;;;;;;;;;;5053322;28;20049;-59
2020/12/18 08:59:41;;;;;;;26.33;13.95;;;;;;;;;;5035730;28;20419;-60
2020/12/18 09:02:17;;;;;;;16.55;10.60;;;;;;;;;;5053467;28;20418;-60
2020/12/18 09:04:43;;;;;;;21.35;8.82;;;;;;;;;;5053663;28;20371;-60
2020/12/18 09:07:09;;;;;;;19.00;8.85;;;;;;;;;;5053391;28;20033;-59
2020/12/18 09:09:35;;;;;;;22.63;8.15;;;;;;;;;;5053374;28;20071;-60
2020/12/18 09:12:15;;;;;;;28.40;8.65;;;;;;;;;;5053212;28;20160;-60
2020/12/18 09:14:41;;;;;;;23.98;8.38;;;;;;;;;;5053232;28;20057;-60
2020/12/18 09:17:07;;;;;;;15.82;7.13;;;;;;;;;;5053195;28;20473;-61
2020/12/18 09:19:34;;;;;;;19.60;8.35;;;;;;;;;;5053001;28;20040;-60
2020/12/18 09:22:04;;;;;;;19.65;8.50;;;;;;;;;;5053027;28;20115;-60
2020/12/18 09:24:30;;;;;;;21.90;9.35;;;;;;;;;;5053080;28;20122;-60
2020/12/18 09:27:15;;;;;;;20.67;9.85;;;;;;;;;;5053460;28;20025;-60
2020/12/18 09:29:41;;;;;;;25.50;10.40;;;;;;;;;;5052722;28;20040;-60
2020/12/18 09:32:07;;;;;;;12.80;8.43;;;;;;;;;;5052988;28;20480;-60
2020/12/18 09:34:34;;;;;;;16.92;7.53;;;;;;;;;;5053156;28;20021;-60
2020/12/18 09:37:13;;;;;;;18.27;8.23;;;;;;;;;;5053080;28;20071;-60
2020/12/18 09:39:39;;;;;;;17.05;7.15;;;;;;;;;;5053058;28;20025;-60
2020/12/18 09:42:06;;;;;;;21.58;9.48;;;;;;;;;;5045286;28;20045;-59
2020/12/18 09:44:32;;;;;;;18.50;8.73;;;;;;;;;;5048499;28;20037;-60
2020/12/18 09:46:58;;;;;;;21.63;8.88;;;;;;;;;;5050294;28;20032;-60
2020/12/18 09:49:25;;;;;;;23.92;8.80;;;;;;;;;;5038002;28;20450;-60
2020/12/18 09:51:51;;;;;;;17.20;6.88;;;;;;;;;;5049660;28;20021;-60
2020/12/18 09:54:17;;;;;;;16.33;7.32;;;;;;;;;;5044238;28;20490;-60
2020/12/18 09:56:44;;;;;;;21.58;7.13;;;;;;;;;;5032985;28;20041;-60
2020/12/18 09:59:12;;;;;;;12.38;5.85;;;;;;;;;;5032784;28;20398;-60
2020/12/18 10:01:38;;;;;;;25.45;7.18;;;;;;;;;;5032826;28;20018;-60
2020/12/18 10:04:04;;;;;;;11.02;5.90;;;;;;;;;;5032726;28;20462;-59
2020/12/18 10:06:31;;;;;;;16.25;6.78;;;;;;;;;;5032770;28;20382;-60
2020/12/18 10:08:57;;;;;;;12.93;6.43;;;;;;;;;;5032663;28;20032;-60
2020/12/18 10:11:30;;;;;;;16.00;6.80;;;;;;;;;;5032794;28;20029;-60
2020/12/18 10:13:56;;;;;;;20.95;9.05;;;;;;;;;;5032665;28;20033;-60
2020/12/18 10:16:22;;;;;;;20.00;6.75;;;;;;;;;;5032840;28;20030;-60
2020/12/18 10:18:49;;;;;;;13.65;6.22;;;;;;;;;;5032580;28;20025;-59
2020/12/18 10:21:15;;;;;;;12.70;6.38;;;;;;;;;;5032725;28;20022;-60
2020/12/18 10:23:41;;;;;;;13.73;6.57;;;;;;;;;;5032850;28;20033;-60
2020/12/18 10:26:07;;;;;;;16.27;6.22;;;;;;;;;;5033028;28;20475;-60
2020/12/18 10:28:34;;;;;;;25.58;7.03;;;;;;;;;;5032791;28;20033;-60
2020/12/18 10:31:00;;;;;;;15.57;6.07;;;;;;;;;;5032658;28;20025;-60
2020/12/18 10:33:26;;;;;;;15.93;5.10;;;;;;;;;;5032436;28;20026;-60
2020/12/18 10:35:56;;;;;;;13.13;5.88;;;;;;;;;;5032677;28;20028;-60
2020/12/18 10:38:27;;;;;;;18.23;9.02;;;;;;;;;;5032434;28;20032;-61
2020/12/18 10:40:54;;;;;;;;;;;;;;;;;;5033959;28;20037;-60
2020/12/18 10:43:22;;;;;;;15.25;6.93;;;;;;;;;;5045730;28;19916;-60
2020/12/18 10:45:48;;;;;;;17.45;7.22;;;;;;;;;;5036081;28;20021;-59
2020/12/18 10:48:17;;;;;;;13.45;8.98;;;;;;;;;;5035613;28;20037;-59
2020/12/18 10:50:43;;;;;;;19.75;8.50;;;;;;;;;;5035863;28;20493;-59
2020/12/18 10:53:09;;;;;;;19.13;11.90;;;;;;;;;;5035812;28;20029;-57
2020/12/18 10:55:36;;;;;;;26.80;9.07;;;;;;;;;;5040302;28;20024;-58
2020/12/18 10:58:02;;;;;;;11.70;7.88;;;;;;;;;;5058122;28;20049;-59
2020/12/18 11:00:29;;;;;;;17.92;12.45;;;;;;;;;;5057341;28;20025;-59
2020/12/18 11:02:55;;;;;;;23.92;12.20;;;;;;;;;;5055415;28;20040;-59
2020/12/18 11:05:21;;;;;;;14.43;7.55;;;;;;;;;;5055546;28;20062;-59
2020/12/18 11:07:47;;;;;;;13.73;6.20;;;;;;;;;;5055015;28;20033;-59
2020/12/18 11:10:13;;;;;;;12.95;6.32;;;;;;;;;;5055566;28;20024;-60
2020/12/18 11:12:39;;;;;;;15.07;7.63;;;;;;;;;;5056166;28;20385;-60
2020/12/18 11:15:06;;;;;;;13.43;7.03;;;;;;;;;;5055297;28;20021;-61
2020/12/18 11:17:32;;;;;;;22.15;7.15;;;;;;;;;;5055382;28;20025;-60
2020/12/18 11:19:58;;;;;;;20.45;6.95;;;;;;;;;;5055321;28;20032;-59
2020/12/18 11:22:24;;;;;;;14.60;7.60;;;;;;;;;;5054488;28;20071;-59
2020/12/18 11:24:50;;;;;;;27.38;9.93;;;;;;;;;;5055310;28;20154;-57
2020/12/18 11:27:17;;;;;;;24.92;7.70;;;;;;;;;;5054843;28;20064;-60
2020/12/18 11:29:43;;;;;;;14.90;7.38;;;;;;;;;;5055178;28;20489;-60
2020/12/18 11:32:09;;;;;;;14.82;7.88;;;;;;;;;;5054981;28;20036;-59
2020/12/18 11:34:35;;;;;;;16.35;7.05;;;;;;;;;;5054922;28;20024;-60
2020/12/18 11:37:03;;;;;;;13.68;7.70;;;;;;;;;;5054968;28;20029;-60
2020/12/18 11:39:30;;;;;;;15.88;8.20;;;;;;;;;;5054829;28;20037;-60
2020/12/18 11:41:56;;;;;;;20.05;9.25;;;;;;;;;;5054364;28;20036;-60
2020/12/18 11:44:22;;;;;;;18.98;8.68;;;;;;;;;;5054863;28;20445;-60
2020/12/18 11:46:50;;;;;;;15.18;8.00;;;;;;;;;;5054745;28;20462;-60
2020/12/18 11:49:16;;;;;;;16.70;8.00;;;;;;;;;;5054775;28;20032;-60
2020/12/18 11:51:42;;;;;;;19.65;7.43;;;;;;;;;;5054277;28;20028;-60
2020/12/18 11:54:08;;;;;;;19.52;8.55;;;;;;;;;;5054534;28;20029;-60
2020/12/18 11:56:35;;;;;;;19.98;8.48;;;;;;;;;;5054299;28;20146;-59
2020/12/18 11:59:01;;;;;;;18.60;6.93;;;;;;;;;;5059530;28;20032;-59
2020/12/18 12:01:28;;;;;;;12.73;6.63;;;;;;;;;;5069938;28;20029;-60
2020/12/18 12:03:55;;;;;;;15.52;6.70;;;;;;;;;;5074398;28;20482;-60
2020/12/18 12:06:21;;;;;;;16.73;6.65;;;;;;;;;;5056579;28;20025;-59
2020/12/18 12:08:50;;;;;;;19.67;7.15;;;;;;;;;;5054117;28;20100;-59
2020/12/18 12:11:16;;;;;;;16.13;7.32;;;;;;;;;;5054470;28;20017;-59
2020/12/18 12:13:45;;;;;;;17.10;8.05;;;;;;;;;;5054643;28;20421;-60
2020/12/18 12:16:14;;;;;;;17.05;7.65;;;;;;;;;;5054302;28;20021;-60
2020/12/18 12:18:40;;;;;;;13.82;8.18;;;;;;;;;;5053868;28;20585;-60
2020/12/18 12:21:06;;;;;;;21.33;9.27;;;;;;;;;;5054156;28;20052;-60
2020/12/18 12:23:32;;;;;;;21.98;9.80;;;;;;;;;;5053633;28;20037;-59
2020/12/18 12:25:59;;;;;;;18.05;9.23;;;;;;;;;;5053919;28;20021;-59
2020/12/18 12:28:25;;;;;;;21.10;9.02;;;;;;;;;;5050415;28;20037;-59
2020/12/18 12:30:51;;;;;;;23.90;9.98;;;;;;;;;;5053169;28;20471;-59
2020/12/18 12:33:17;;;;;;;23.45;9.00;;;;;;;;;;5053908;28;20021;-59
2020/12/18 12:35:43;;;;;;;18.90;8.10;;;;;;;;;;5053722;28;20017;-59
2020/12/18 12:38:10;;;;;;;15.25;8.48;;;;;;;;;;5054155;28;20481;-59
2020/12/18 12:40:37;;;;;;;11.18;6.57;;;;;;;;;;5053670;28;20033;-60
2020/12/18 12:43:04;;;;;;;11.73;6.50;;;;;;;;;;5052461;28;20024;-60
2020/12/18 12:45:30;;;;;;;18.35;7.57;;;;;;;;;;5052677;28;20080;-59
2020/12/18 12:47:56;;;;;;;14.93;7.18;;;;;;;;;;5053634;28;20060;-59
2020/12/18 12:50:22;;;;;;;19.92;7.40;;;;;;;;;;5053292;28;20354;-59
2020/12/18 12:52:48;;;;;;;13.73;6.43;;;;;;;;;;5046288;28;20079;-59
2020/12/18 12:55:14;;;;;;;13.40;6.05;;;;;;;;;;5053503;28;20032;-59
2020/12/18 12:57:40;;;;;;;17.38;7.85;;;;;;;;;;5053279;28;20045;-59
2020/12/18 13:00:06;;;;;;;14.52;8.40;;;;;;;;;;5052905;28;20043;-59
2020/12/18 13:02:32;;;;;;;21.02;9.13;;;;;;;;;;5053314;28;20087;-59
2020/12/18 13:04:59;;;;;;;18.23;7.25;;;;;;;;;;5052658;28;20022;-59
2020/12/18 13:07:25;;;;;;;7.97;5.90;;;;;;;;;;5053262;28;20075;-59
2020/12/18 13:09:51;;;;;;;12.35;6.85;;;;;;;;;;5053638;28;20432;-59
2020/12/18 13:12:17;;;;;;;13.63;6.90;;;;;;;;;;5053200;28;20067;-59
2020/12/18 13:14:43;;;;;;;17.92;6.45;;;;;;;;;;5053340;28;20029;-59
2020/12/18 13:17:09;;;;;;;15.40;6.95;;;;;;;;;;5053110;28;20049;-59
2020/12/18 13:19:35;;;;;;;13.13;6.97;;;;;;;;;;5053075;28;20055;-59
2020/12/18 13:22:05;;;;;;;15.63;7.47;;;;;;;;;;5052866;28;20063;-58
2020/12/18 13:24:31;;;;;;;15.15;6.88;;;;;;;;;;5053381;28;20051;-59
2020/12/18 13:26:58;;;;;;;11.07;6.32;;;;;;;;;;5052968;28;20028;-56
2020/12/18 13:29:24;;;;;;;16.10;7.03;;;;;;;;;;5052988;28;20175;-59
2020/12/18 13:31:50;;;;;;;21.65;6.97;;;;;;;;;;5053147;28;20044;-59
2020/12/18 13:34:16;;;;;;;11.75;6.25;;;;;;;;;;5053083;28;20025;-58
2020/12/18 13:36:42;;;;;;;10.23;5.78;;;;;;;;;;5052666;28;20021;-59
2020/12/18 13:39:09;;;;;;;12.43;6.15;;;;;;;;;;5051800;28;20338;-59
2020/12/18 13:41:35;;;;;;;19.23;7.65;;;;;;;;;;5051738;28;20302;-59
2020/12/18 13:44:01;;;;;;;18.83;6.85;;;;;;;;;;5052557;28;20516;-59
2020/12/18 13:46:27;;;;;;;16.67;7.47;;;;;;;;;;5052744;28;20109;-58
2020/12/18 13:48:53;;;;;;;12.70;7.15;;;;;;;;;;5052723;28;20115;-59
2020/12/18 13:51:19;;;;;;;15.68;8.05;;;;;;;;;;5052947;28;20423;-59
2020/12/18 13:53:45;;;;;;;16.05;7.95;;;;;;;;;;5052713;28;20057;-58
2020/12/18 13:56:12;;;;;;;23.33;8.93;;;;;;;;;;5052874;28;20029;-59
2020/12/18 13:58:38;;;;;;;15.60;7.93;;;;;;;;;;5052664;28;20454;-59
2020/12/18 14:01:05;;;;;;;19.05;7.78;;;;;;;;;;5052625;28;20025;-59
2020/12/18 14:03:31;;;;;;;16.60;7.70;;;;;;;;;;5052399;28;20037;-59
2020/12/18 14:05:57;;;;;;;18.75;7.03;;;;;;;;;;5052725;28;20127;-59
2020/12/18 14:08:23;;;;;;;15.27;7.15;;;;;;;;;;5052589;28;20082;-59
2020/12/18 14:10:49;;;;;;;20.75;7.60;;;;;;;;;;5052695;28;20385;-59
2020/12/18 14:13:15;;;;;;;18.95;8.90;;;;;;;;;;5052396;28;20029;-58
2020/12/18 14:15:41;;;;;;;18.00;8.07;;;;;;;;;;5054343;28;20021;-59
2020/12/18 14:18:07;;;;;;;22.92;7.85;;;;;;;;;;5056435;28;20029;-59
2020/12/18 14:20:34;;;;;;;14.88;8.38;;;;;;;;;;5056639;28;20029;-59
2020/12/18 14:23:00;;;;;;;12.82;7.68;;;;;;;;;;5056576;28;20421;-59
2020/12/18 14:25:26;;;;;;;13.93;8.02;;;;;;;;;;5056422;28;20016;-59
2020/12/18 14:27:52;;;;;;;20.45;8.75;;;;;;;;;;5056180;28;20482;-59
2020/12/18 14:30:18;;;;;;;15.48;8.77;;;;;;;;;;5056457;28;20025;-58